Moran, Minnesota
Current Conditions -  °F | °C
As of 1:33 AM on Wednesday 22 Oct 2014 (Local Time) from KSAZ Reporting Station
Clear Clear  
Wind Chill:   Ceiling: Unl
Heat Index:   Visibility: 10mi
Dew Point:   Wind: 13mph
Humidity: 71%   Direction: 150°SSE
Pressure: 30.06"   Gusts: 17mph
Location:  46.4416°N, 94.6389°W
Report Text: KSAZ 220633Z AUTO 15011G15KT 10SM CLR 08/03 A3006 RMK AO2
Loading
Personal Weather Stations






























Interactive Weather Map
Tropical Storm Tracking
New forecast layout! Learn more

10-Day Weather Forecast

Advertisements
Track Severe Weather on mobile